Calypso — IYQT — position and weather

sailwx.info

Track history (hours):
 
Tides and Currents Weather Stations Pressure Air Temp Water Temp Dewpoint Dewpoint Depression Visibility Wind Speed Wind Dir Waves Ship Positions

Calypso

Last reported at 2018-Apr-20 08:11 UTC. Time now 2018-Apr-20 11:01 UTC.
Position N 38°39' E 015°05'.

Length 32 m; draft 4.1 m.

Type: High speed craft. MMSI: 247143200.

Date/timePositionNaut miles runAvg speedWind from/ knotsBaromVisibWave heightAir tempDewpointWater temp
2018-Apr-20 08:11N 38°39' E 015°05'2 6.8
2018-Apr-20 07:53N 38°37' E 015°03'810.5
2018-Apr-20 07:10N 38°30' E 014°59'532.7
2018-Apr-20 07:01N 38°25' E 014°59'1613.2
2018-Apr-20 05:48N 38°17' E 015°16'413.7
2018-Apr-20 05:30N 38°13' E 015°14'0 0.2
2018-Apr-20 05:00N 38°13' E 015°15'0 0.0
2018-Apr-19 13:49N 38°13' E 015°15'0 0.8
2018-Apr-19 13:30N 38°13' E 015°15'0 0.7
2018-Apr-19 13:00N 38°13' E 015°14'611.6
2018-Apr-19 12:30N 38°19' E 015°12'4 0.6
2018-Apr-19 05:48N 38°17' E 015°17'414.0
2018-Apr-19 05:31N 38°13' E 015°14'0 0.7
2018-Apr-19 05:01N 38°13' E 015°15'0 0.0
2018-Apr-18 13:42N 38°13' E 015°15'0 0.1
2018-Apr-18 13:30N 38°13' E 015°15'0 0.7
2018-Apr-18 13:00N 38°13' E 015°14'612.8
2018-Apr-18 12:30N 38°19' E 015°13'1321.3
2018-Apr-18 11:55N 38°25' E 014°59'3 6.8
2018-Apr-18 11:27N 38°28' E 014°57'6 9.0
2018-Apr-18 10:47N 38°34' E 014°57'16 7.6
2018-Apr-18 08:42N 38°46' E 015°11'310.7
2018-Apr-18 08:25N 38°43' E 015°09'613.0
2018-Apr-18 07:57N 38°38' E 015°05'811.7
2018-Apr-18 07:15N 38°32' E 014°58'729.1
2018-Apr-18 07:00N 38°25' E 014°58'3 6.6
2018-Apr-18 06:30N 38°28' E 014°57'1122.2
2018-Apr-18 06:00N 38°22' E 015°09'1019.3
2018-Apr-18 05:30N 38°13' E 015°14'0 0.7
2018-Apr-18 05:00N 38°13' E 015°15'0 0.0
2018-Apr-17 13:28N 38°13' E 015°15'0 0.3
2018-Apr-17 13:00N 38°13' E 015°15'611.1
2018-Apr-17 12:30N 38°18' E 015°13'1322.9
2018-Apr-17 11:55N 38°25' E 014°58'3 5.7
2018-Apr-17 11:21N 38°28' E 014°58'710.1
2018-Apr-17 10:39N 38°35' E 014°59'7 2.9
2018-Apr-17 08:12N 38°40' E 015°06'2 8.1
2018-Apr-17 07:55N 38°38' E 015°05'912.8
2018-Apr-17 07:12N 38°30' E 014°59'513.0
2018-Apr-17 06:49N 38°25' E 014°58'3 8.3
2018-Apr-17 06:25N 38°28' E 014°57'1228.6
2018-Apr-17 06:00N 38°22' E 015°10'918.9
2018-Apr-17 05:30N 38°13' E 015°14'0 0.7
2018-Apr-17 05:00N 38°13' E 015°15'0 0.0
2018-Apr-16 13:28N 38°13' E 015°15'0 0.0
2018-Apr-16 13:00N 38°13' E 015°15'611.5
2018-Apr-16 12:30N 38°19' E 015°15'1428.7
2018-Apr-16 12:00N 38°25' E 014°59'3 6.6
2018-Apr-16 11:30N 38°28' E 014°57'9 9.6
2018-Apr-16 10:34N 38°36' E 015°03'233.5
2018-Apr-16 10:30N 38°38' E 015°05'10 5.7
2018-Apr-16 08:41N 38°46' E 015°13'514.3
2018-Apr-16 08:18N 38°41' E 015°10'512.0
2018-Apr-16 07:54N 38°38' E 015°05'911.5
2018-Apr-16 07:08N 38°30' E 014°59'432.4
2018-Apr-16 07:00N 38°26' E 014°59'3 4.3
2018-Apr-16 06:24N 38°28' E 014°57'1228.7
2018-Apr-16 05:59N 38°22' E 015°10'1019.6
2018-Apr-16 05:30N 38°13' E 015°14'0 0.7
2018-Apr-16 05:00N 38°13' E 015°15'0 0.0
2018-Apr-15 18:53N 38°13' E 015°15'0 0.3
2018-Apr-15 18:31N 38°13' E 015°15'612.9
2018-Apr-15 18:01N 38°19' E 015°11'1521.2
2018-Apr-15 17:19N 38°28' E 014°57'2010.1
2018-Apr-15 15:18N 38°45' E 015°13'922.1
2018-Apr-15 14:53N 38°38' E 015°05'1129.7
2018-Apr-15 14:30N 38°28' E 014°58'1122.2
2018-Apr-15 14:00N 38°22' E 015°09'918.4
2018-Apr-15 13:30N 38°13' E 015°14'0 0.7
2018-Apr-15 13:01N 38°13' E 015°15'4 9.0
2018-Apr-15 12:30N 38°17' E 015°16'1632.0
2018-Apr-15 12:00N 38°25' E 014°58'3 6.2
2018-Apr-15 11:28N 38°28' E 014°58'6 8.7
2018-Apr-15 10:43N 38°35' E 014°57'2 0.6
2018-Apr-15 07:12N 38°33' E 014°57'526.5
2018-Apr-15 07:00N 38°28' E 014°60'1 2.4
2018-Apr-15 06:27N 38°27' E 014°58'1431.0
2018-Apr-15 06:00N 38°18' E 015°12'611.5
2018-Apr-15 05:30N 38°13' E 015°14'0 0.7
2018-Apr-15 05:00N 38°13' E 015°15'0 0.0
2018-Apr-14 13:24N 38°13' E 015°15'0 0.1
2018-Apr-14 13:00N 38°13' E 015°15'3 5.1
2018-Apr-14 12:31N 38°15' E 015°15'1631.8
2018-Apr-14 12:00N 38°25' E 014°59'4 6.5
2018-Apr-14 11:27N 38°28' E 014°58'6 8.3
2018-Apr-14 10:44N 38°34' E 014°55'1321.2
2018-Apr-14 10:07N 38°41' E 015°08'3 1.7
2018-Apr-14 08:11N 38°39' E 015°05'3 9.8
2018-Apr-14 07:54N 38°37' E 015°03'1217.2
2018-Apr-14 07:13N 38°28' E 014°53'5 8.8
2018-Apr-14 06:40N 38°25' E 014°58'321.6
2018-Apr-14 06:30N 38°28' E 014°57'1019.8
2018-Apr-14 06:00N 38°22' E 015°07'1020.5
2018-Apr-14 05:30N 38°13' E 015°14'0 0.7
2018-Apr-14 05:00N 38°13' E 015°15'0 0.0
2018-Apr-13 18:55N 38°13' E 015°15'0 0.2
2018-Apr-13 18:30N 38°13' E 015°15'714.1
2018-Apr-13 18:00N 38°19' E 015°11'1222.6
2018-Apr-13 17:28N 38°26' E 014°58'1011.0
2018-Apr-13 16:36N 38°36' E 015°01'334.3
2018-Apr-13 16:30N 38°37' E 015°05'1121.7
2018-Apr-13 15:59N 38°47' E 015°11'2 4.1
2018-Apr-13 15:30N 38°46' E 015°13'1222.1
2018-Apr-13 14:57N 38°36' E 015°04'920.1
2018-Apr-13 14:30N 38°28' E 014°57'1633.2
2018-Apr-13 14:00N 38°18' E 015°14'510.1
2018-Apr-13 13:30N 38°13' E 015°14'0 0.6
2018-Apr-13 13:00N 38°13' E 015°15'3 6.5
2018-Apr-13 12:30N 38°16' E 015°16'1632.7
2018-Apr-13 12:00N 38°25' E 014°59'3 6.2
2018-Apr-13 11:28N 38°28' E 014°57'7 9.3
2018-Apr-13 10:44N 38°35' E 014°59'4 1.5
2018-Apr-13 07:54N 38°37' E 015°03'1213.4
2018-Apr-13 07:00N 38°26' E 014°57'2 3.9
2018-Apr-13 06:24N 38°28' E 014°57'1128.8
2018-Apr-13 06:00N 38°22' E 015°09'1020.0
2018-Apr-13 05:30N 38°13' E 015°14'0 0.2
2018-Apr-13 04:59N 38°13' E 015°15'0 0.0
2018-Apr-12 13:39N 38°13' E 015°15'0 0.0
2018-Apr-12 13:21N 38°13' E 015°15'0 0.0
2018-Apr-12 12:57N 38°13' E 015°15'0 0.0
2018-Apr-12 12:27N 38°13' E 015°15'0 0.0
2018-Apr-12 11:57N 38°13' E 015°15'0 0.0
2018-Apr-12 11:27N 38°13' E 015°15'0 0.0
2018-Apr-12 10:57N 38°13' E 015°15'0 0.0
2018-Apr-12 10:27N 38°13' E 015°15'0 0.0
2018-Apr-12 09:57N 38°13' E 015°15'0 0.0
2018-Apr-12 09:27N 38°13' E 015°15'0 0.0
2018-Apr-12 09:00N 38°13' E 015°15'0 0.0
2018-Apr-12 08:30N 38°13' E 015°15'0 0.0
2018-Apr-12 08:00N 38°13' E 015°15'0 0.0
2018-Apr-12 07:30N 38°13' E 015°15'0 0.7
2018-Apr-12 07:01N 38°13' E 015°15'0 0.3
2018-Apr-12 06:30N 38°13' E 015°15'0 0.0
2018-Apr-12 06:01N 38°13' E 015°15'0 0.0
2018-Apr-12 05:31N 38°13' E 015°15'0 0.0
2018-Apr-12 05:01N 38°13' E 015°15'0 0.0
2018-Apr-12 02:13N 38°13' E 015°15'0 0.0
2018-Apr-12 02:01N 38°13' E 015°15'0 0.0
2018-Apr-11 19:41N 38°13' E 015°15'0 0.0
2018-Apr-11 19:31N 38°13' E 015°15'0 0.0
2018-Apr-11 19:01N 38°13' E 015°15'0 0.0
2018-Apr-11 18:30N 38°13' E 015°15'0 0.0
2018-Apr-11 18:01N 38°13' E 015°15'0 0.0
2018-Apr-11 17:31N 38°13' E 015°15'0 0.0
2018-Apr-11 17:01N 38°13' E 015°15'0 0.0
2018-Apr-11 16:31N 38°13' E 015°15'0 0.0
2018-Apr-11 16:00N 38°13' E 015°15'0 0.4
2018-Apr-11 15:31N 38°13' E 015°15'2 3.8
2018-Apr-11 15:00N 38°14' E 015°16'4 7.9
2018-Apr-11 14:30N 38°18' E 015°16'4 8.0
2018-Apr-11 13:59N 38°22' E 015°14'4 8.1
2018-Apr-11 13:30N 38°26' E 015°11'5 8.1
2018-Apr-11 12:56N 38°30' E 015°08'8 2.0
2018-Apr-11 08:42N 38°37' E 015°04'9 5.6
2018-Apr-11 07:08N 38°30' E 014°59'433.6
2018-Apr-11 07:00N 38°26' E 014°59'3 5.5
2018-Apr-11 06:29N 38°28' E 014°57'1224.8
2018-Apr-11 06:00N 38°21' E 015°09'918.2
2018-Apr-11 05:30N 38°13' E 015°14'0 0.7
2018-Apr-11 05:00N 38°13' E 015°15'0 0.0
2018-Apr-10 13:49N 38°13' E 015°15'0 0.7
2018-Apr-10 13:30N 38°13' E 015°15'0 0.4
2018-Apr-10 13:00N 38°13' E 015°14'3 6.7
2018-Apr-10 12:31N 38°16' E 015°16'1733.3
2018-Apr-10 12:00N 38°25' E 014°58'3 6.6
2018-Apr-10 11:30N 38°28' E 014°57'7 8.5
2018-Apr-10 10:39N 38°35' E 014°59'  
Track history (hours):
 
Tides and Currents Weather Stations Pressure Air Temp Water Temp Dewpoint Dewpoint Depression Visibility Wind Speed Wind Dir Waves Ship Positions

Calypso

Last reported at 2018-Apr-20 08:11 UTC. Time now 2018-Apr-20 11:01 UTC.
Position N 38°39' E 015°05'.

Length 32 m; draft 4.1 m.

Type: High speed craft. MMSI: 247143200.

Date/timePositionNaut miles runAvg speedWind from/ knotsBaromVisibWave heightAir tempDewpointWater temp
2018-Apr-20 08:11N 38°39' E 015°05'2 6.8
2018-Apr-20 07:53N 38°37' E 015°03'810.5
2018-Apr-20 07:10N 38°30' E 014°59'532.7
2018-Apr-20 07:01N 38°25' E 014°59'1613.2
2018-Apr-20 05:48N 38°17' E 015°16'413.7
2018-Apr-20 05:30N 38°13' E 015°14'0 0.2
2018-Apr-20 05:00N 38°13' E 015°15'0 0.0
2018-Apr-19 13:49N 38°13' E 015°15'0 0.8
2018-Apr-19 13:30N 38°13' E 015°15'0 0.7
2018-Apr-19 13:00N 38°13' E 015°14'611.6
2018-Apr-19 12:30N 38°19' E 015°12'4 0.6
2018-Apr-19 05:48N 38°17' E 015°17'414.0
2018-Apr-19 05:31N 38°13' E 015°14'0 0.7
2018-Apr-19 05:01N 38°13' E 015°15'0 0.0
2018-Apr-18 13:42N 38°13' E 015°15'0 0.1
2018-Apr-18 13:30N 38°13' E 015°15'0 0.7
2018-Apr-18 13:00N 38°13' E 015°14'612.8
2018-Apr-18 12:30N 38°19' E 015°13'1321.3
2018-Apr-18 11:55N 38°25' E 014°59'3 6.8
2018-Apr-18 11:27N 38°28' E 014°57'6 9.0
2018-Apr-18 10:47N 38°34' E 014°57'16 7.6
2018-Apr-18 08:42N 38°46' E 015°11'310.7
2018-Apr-18 08:25N 38°43' E 015°09'613.0
2018-Apr-18 07:57N 38°38' E 015°05'811.7
2018-Apr-18 07:15N 38°32' E 014°58'729.1
2018-Apr-18 07:00N 38°25' E 014°58'3 6.6
2018-Apr-18 06:30N 38°28' E 014°57'1122.2
2018-Apr-18 06:00N 38°22' E 015°09'1019.3
2018-Apr-18 05:30N 38°13' E 015°14'0 0.7
2018-Apr-18 05:00N 38°13' E 015°15'0 0.0
2018-Apr-17 13:28N 38°13' E 015°15'0 0.3
2018-Apr-17 13:00N 38°13' E 015°15'611.1
2018-Apr-17 12:30N 38°18' E 015°13'1322.9
2018-Apr-17 11:55N 38°25' E 014°58'3 5.7
2018-Apr-17 11:21N 38°28' E 014°58'710.1
2018-Apr-17 10:39N 38°35' E 014°59'7 2.9
2018-Apr-17 08:12N 38°40' E 015°06'2 8.1
2018-Apr-17 07:55N 38°38' E 015°05'912.8
2018-Apr-17 07:12N 38°30' E 014°59'513.0
2018-Apr-17 06:49N 38°25' E 014°58'3 8.3
2018-Apr-17 06:25N 38°28' E 014°57'1228.6
2018-Apr-17 06:00N 38°22' E 015°10'918.9
2018-Apr-17 05:30N 38°13' E 015°14'0 0.7
2018-Apr-17 05:00N 38°13' E 015°15'0 0.0
2018-Apr-16 13:28N 38°13' E 015°15'0 0.0
2018-Apr-16 13:00N 38°13' E 015°15'611.5
2018-Apr-16 12:30N 38°19' E 015°15'1428.7
2018-Apr-16 12:00N 38°25' E 014°59'3 6.6
2018-Apr-16 11:30N 38°28' E 014°57'9 9.6
2018-Apr-16 10:34N 38°36' E 015°03'233.5
2018-Apr-16 10:30N 38°38' E 015°05'10 5.7
2018-Apr-16 08:41N 38°46' E 015°13'514.3
2018-Apr-16 08:18N 38°41' E 015°10'512.0
2018-Apr-16 07:54N 38°38' E 015°05'911.5
2018-Apr-16 07:08N 38°30' E 014°59'432.4
2018-Apr-16 07:00N 38°26' E 014°59'3 4.3
2018-Apr-16 06:24N 38°28' E 014°57'1228.7
2018-Apr-16 05:59N 38°22' E 015°10'1019.6
2018-Apr-16 05:30N 38°13' E 015°14'0 0.7
2018-Apr-16 05:00N 38°13' E 015°15'0 0.0
2018-Apr-15 18:53N 38°13' E 015°15'0 0.3
2018-Apr-15 18:31N 38°13' E 015°15'612.9
2018-Apr-15 18:01N 38°19' E 015°11'1521.2
2018-Apr-15 17:19N 38°28' E 014°57'2010.1
2018-Apr-15 15:18N 38°45' E 015°13'922.1
2018-Apr-15 14:53N 38°38' E 015°05'1129.7
2018-Apr-15 14:30N 38°28' E 014°58'1122.2
2018-Apr-15 14:00N 38°22' E 015°09'918.4
2018-Apr-15 13:30N 38°13' E 015°14'0 0.7
2018-Apr-15 13:01N 38°13' E 015°15'4 9.0
2018-Apr-15 12:30N 38°17' E 015°16'1632.0
2018-Apr-15 12:00N 38°25' E 014°58'3 6.2
2018-Apr-15 11:28N 38°28' E 014°58'6 8.7
2018-Apr-15 10:43N 38°35' E 014°57'2 0.6
2018-Apr-15 07:12N 38°33' E 014°57'526.5
2018-Apr-15 07:00N 38°28' E 014°60'1 2.4
2018-Apr-15 06:27N 38°27' E 014°58'1431.0
2018-Apr-15 06:00N 38°18' E 015°12'611.5
2018-Apr-15 05:30N 38°13' E 015°14'0 0.7
2018-Apr-15 05:00N 38°13' E 015°15'0 0.0
2018-Apr-14 13:24N 38°13' E 015°15'0 0.1
2018-Apr-14 13:00N 38°13' E 015°15'3 5.1
2018-Apr-14 12:31N 38°15' E 015°15'1631.8
2018-Apr-14 12:00N 38°25' E 014°59'4 6.5
2018-Apr-14 11:27N 38°28' E 014°58'6 8.3
2018-Apr-14 10:44N 38°34' E 014°55'1321.2
2018-Apr-14 10:07N 38°41' E 015°08'3 1.7
2018-Apr-14 08:11N 38°39' E 015°05'3 9.8
2018-Apr-14 07:54N 38°37' E 015°03'1217.2
2018-Apr-14 07:13N 38°28' E 014°53'5 8.8
2018-Apr-14 06:40N 38°25' E 014°58'321.6
2018-Apr-14 06:30N 38°28' E 014°57'1019.8
2018-Apr-14 06:00N 38°22' E 015°07'1020.5
2018-Apr-14 05:30N 38°13' E 015°14'0 0.7
2018-Apr-14 05:00N 38°13' E 015°15'0 0.0
2018-Apr-13 18:55N 38°13' E 015°15'0 0.2
2018-Apr-13 18:30N 38°13' E 015°15'714.1
2018-Apr-13 18:00N 38°19' E 015°11'1222.6
2018-Apr-13 17:28N 38°26' E 014°58'1011.0
2018-Apr-13 16:36N 38°36' E 015°01'334.3
2018-Apr-13 16:30N 38°37' E 015°05'1121.7
2018-Apr-13 15:59N 38°47' E 015°11'2 4.1
2018-Apr-13 15:30N 38°46' E 015°13'1222.1
2018-Apr-13 14:57N 38°36' E 015°04'920.1
2018-Apr-13 14:30N 38°28' E 014°57'1633.2
2018-Apr-13 14:00N 38°18' E 015°14'510.1
2018-Apr-13 13:30N 38°13' E 015°14'0 0.6
2018-Apr-13 13:00N 38°13' E 015°15'3 6.5
2018-Apr-13 12:30N 38°16' E 015°16'1632.7
2018-Apr-13 12:00N 38°25' E 014°59'3 6.2
2018-Apr-13 11:28N 38°28' E 014°57'7 9.3
2018-Apr-13 10:44N 38°35' E 014°59'4 1.5
2018-Apr-13 07:54N 38°37' E 015°03'1213.4
2018-Apr-13 07:00N 38°26' E 014°57'2 3.9
2018-Apr-13 06:24N 38°28' E 014°57'1128.8
2018-Apr-13 06:00N 38°22' E 015°09'1020.0
2018-Apr-13 05:30N 38°13' E 015°14'0 0.2
2018-Apr-13 04:59N 38°13' E 015°15'0 0.0
2018-Apr-12 13:39N 38°13' E 015°15'0 0.0
2018-Apr-12 13:21N 38°13' E 015°15'0 0.0
2018-Apr-12 12:57N 38°13' E 015°15'0 0.0
2018-Apr-12 12:27N 38°13' E 015°15'0 0.0
2018-Apr-12 11:57N 38°13' E 015°15'0 0.0
2018-Apr-12 11:27N 38°13' E 015°15'0 0.0
2018-Apr-12 10:57N 38°13' E 015°15'0 0.0
2018-Apr-12 10:27N 38°13' E 015°15'0 0.0
2018-Apr-12 09:57N 38°13' E 015°15'0 0.0
2018-Apr-12 09:27N 38°13' E 015°15'0 0.0
2018-Apr-12 09:00N 38°13' E 015°15'0 0.0
2018-Apr-12 08:30N 38°13' E 015°15'0 0.0
2018-Apr-12 08:00N 38°13' E 015°15'0 0.0
2018-Apr-12 07:30N 38°13' E 015°15'0 0.7
2018-Apr-12 07:01N 38°13' E 015°15'0 0.3
2018-Apr-12 06:30N 38°13' E 015°15'0 0.0
2018-Apr-12 06:01N 38°13' E 015°15'0 0.0
2018-Apr-12 05:31N 38°13' E 015°15'0 0.0
2018-Apr-12 05:01N 38°13' E 015°15'0 0.0
2018-Apr-12 02:13N 38°13' E 015°15'0 0.0
2018-Apr-12 02:01N 38°13' E 015°15'0 0.0
2018-Apr-11 19:41N 38°13' E 015°15'0 0.0
2018-Apr-11 19:31N 38°13' E 015°15'0 0.0
2018-Apr-11 19:01N 38°13' E 015°15'0 0.0
2018-Apr-11 18:30N 38°13' E 015°15'0 0.0
2018-Apr-11 18:01N 38°13' E 015°15'0 0.0
2018-Apr-11 17:31N 38°13' E 015°15'0 0.0
2018-Apr-11 17:01N 38°13' E 015°15'0 0.0
2018-Apr-11 16:31N 38°13' E 015°15'0 0.0
2018-Apr-11 16:00N 38°13' E 015°15'0 0.4
2018-Apr-11 15:31N 38°13' E 015°15'2 3.8
2018-Apr-11 15:00N 38°14' E 015°16'4 7.9
2018-Apr-11 14:30N 38°18' E 015°16'4 8.0
2018-Apr-11 13:59N 38°22' E 015°14'4 8.1
2018-Apr-11 13:30N 38°26' E 015°11'5 8.1
2018-Apr-11 12:56N 38°30' E 015°08'8 2.0
2018-Apr-11 08:42N 38°37' E 015°04'9 5.6
2018-Apr-11 07:08N 38°30' E 014°59'433.6
2018-Apr-11 07:00N 38°26' E 014°59'3 5.5
2018-Apr-11 06:29N 38°28' E 014°57'1224.8
2018-Apr-11 06:00N 38°21' E 015°09'918.2
2018-Apr-11 05:30N 38°13' E 015°14'0 0.7
2018-Apr-11 05:00N 38°13' E 015°15'0 0.0
2018-Apr-10 13:49N 38°13' E 015°15'0 0.7
2018-Apr-10 13:30N 38°13' E 015°15'0 0.4
2018-Apr-10 13:00N 38°13' E 015°14'3 6.7
2018-Apr-10 12:31N 38°16' E 015°16'1733.3
2018-Apr-10 12:00N 38°25' E 014°58'3 6.6
2018-Apr-10 11:30N 38°28' E 014°57'7 8.5
2018-Apr-10 10:39N 38°35' E 014°59'  

Dump ship's entire track history